Time;durP1;ratioP1;P1;durP2;ratioP2;P2;SDS_P1;SDS_P2;PMS_P1;PMS_P2;Temp;Humidity;BMP_temperature;BMP_pressure;BME280_temperature;BME280_humidity;BME280_pressure;Samples;Min_cycle;Max_cycle;Signal;HPM_P1;HPM_P2
2021/06/27 00:02:13;;;;;;;14.03;12.37;;;;;;;16.52;79.67;98883.11;262856;1086;23375;-74
2021/06/27 00:07:37;;;;;;;13.45;11.90;;;;;;;16.47;79.28;98885.98;262757;1086;22783;-74
2021/06/27 00:12:42;;;;;;;15.20;13.00;;;;;;;16.40;79.74;98878.38;263110;1087;24447;-74
2021/06/27 00:17:49;;;;;;;13.03;11.63;;;;;;;16.36;79.62;98873.95;262884;1087;27031;-74
2021/06/27 00:22:55;;;;;;;12.53;11.33;;;;;;;16.32;79.49;98868.38;262932;1085;25868;-73
2021/06/27 00:28:01;;;;;;;15.43;12.33;;;;;;;16.25;79.75;98866.17;262888;1087;25861;-74
2021/06/27 00:33:05;;;;;;;13.10;11.65;;;;;;;16.22;79.75;98883.05;263005;1087;25883;-75
2021/06/27 00:38:08;;;;;;;13.25;11.85;;;;;;;16.20;80.14;98879.08;262881;1086;22808;-74
2021/06/27 00:43:12;;;;;;;13.70;11.55;;;;;;;16.19;80.17;98883.70;262836;1086;23001;-74
2021/06/27 00:48:17;;;;;;;11.35;10.20;;;;;;;16.04;79.75;98887.70;262822;1086;22828;-75
2021/06/27 00:53:21;;;;;;;11.25;10.10;;;;;;;15.86;79.63;98895.05;262912;1087;22772;-74
2021/06/27 00:58:36;;;;;;;10.37;9.27;;;;;;;15.66;79.68;98893.00;262864;1086;25861;-75
2021/06/27 01:03:39;;;;;;;17.70;10.90;;;;;;;15.54;79.89;98894.44;262815;1087;22757;-74
2021/06/27 01:08:44;;;;;;;14.30;10.65;;;;;;;15.48;80.62;98901.09;262851;1087;24347;-75
2021/06/27 01:13:50;;;;;;;12.85;10.95;;;;;;;15.44;80.66;98891.25;262902;1085;22761;-75
2021/06/27 01:18:56;;;;;;;11.80;9.60;;;;;;;15.36;80.59;98887.42;262832;1087;25867;-74
2021/06/27 01:24:12;;;;;;;11.75;10.55;;;;;;;15.31;81.02;98901.09;263023;1086;26009;-75
2021/06/27 01:29:17;;;;;;;13.65;11.50;;;;;;;15.26;81.17;98903.94;262840;1086;22845;-74
2021/06/27 01:34:21;;;;;;;13.45;11.35;;;;;;;15.23;81.64;98897.27;262848;1086;22783;-74
2021/06/27 01:39:24;;;;;;;14.55;11.35;;;;;;;15.26;81.84;98891.23;263197;1087;23327;-74
2021/06/27 01:44:28;;;;;;;13.50;11.20;;;;;;;15.28;82.17;98899.81;262935;1086;22815;-74
2021/06/27 01:49:31;;;;;;;14.15;11.90;;;;;;;15.30;82.15;98896.80;263003;1087;22834;-74
2021/06/27 01:54:38;;;;;;;11.67;10.47;;;;;;;15.24;82.10;98898.86;262941;1086;24333;-74
2021/06/27 01:59:47;;;;;;;12.70;11.40;;;;;;;15.16;81.82;98905.82;262835;1086;23635;-75
2021/06/27 02:05:10;;;;;;;13.27;10.80;;;;;;;15.13;82.04;98895.66;262802;1087;22841;-74
2021/06/27 02:10:17;;;;;;;14.30;11.70;;;;;;;15.11;82.46;98903.30;262847;1087;22780;-75
2021/06/27 02:15:23;;;;;;;13.95;10.90;;;;;;;15.12;82.28;98899.46;262822;1087;26238;-74
2021/06/27 02:20:27;;;;;;;14.55;11.90;;;;;;;15.17;82.64;98890.44;263067;1085;22780;-74
2021/06/27 02:25:30;;;;;;;12.85;11.40;;;;;;;15.18;82.54;98892.02;262973;1086;25995;-74
2021/06/27 02:30:34;;;;;;;12.60;11.27;;;;;;;15.12;82.52;98894.06;262880;1087;26248;-74
2021/06/27 02:35:39;;;;;;;12.70;10.70;;;;;;;15.10;82.51;98898.22;262917;1085;23010;-74
2021/06/27 02:40:45;;;;;;;12.60;11.13;;;;;;;15.06;82.49;98903.44;263095;1085;22780;-76
2021/06/27 02:45:49;;;;;;;14.63;10.77;;;;;;;15.05;82.97;98905.34;263066;1087;25970;-74
2021/06/27 02:51:00;;;;;;;12.25;10.10;;;;;;;15.06;82.71;98895.34;263017;1087;25996;-74
2021/06/27 02:56:20;;;;;;;13.20;11.40;;;;;;;15.12;82.89;98893.28;262880;1086;25777;-75
2021/06/27 03:01:24;;;;;;;12.93;11.57;;;;;;;15.23;83.25;98884.58;262994;1087;24186;-74
2021/06/27 03:06:27;;;;;;;14.15;12.65;;;;;;;15.37;83.51;98886.31;263051;1086;22829;-74
2021/06/27 03:11:44;;;;;;;14.50;12.15;;;;;;;15.49;83.49;98880.30;262901;1087;23444;-74
2021/06/27 03:17:02;;;;;;;12.67;11.37;;;;;;;15.68;83.81;98869.16;263006;1087;22965;-74
2021/06/27 03:22:05;;;;;;;12.75;11.05;;;;;;;16.01;83.81;98876.76;262945;1085;22874;-75
2021/06/27 03:27:25;;;;;;;12.75;11.50;;;;;;;16.35;83.38;98873.13;262772;1087;23444;-75
2021/06/27 03:32:28;;;;;;;11.90;10.80;;;;;;;16.75;82.35;98878.20;262818;1087;26392;-74
2021/06/27 03:37:33;;;;;;;12.20;9.80;;;;;;;16.96;80.92;98885.60;262833;1087;24048;-76
2021/06/27 03:42:36;;;;;;;11.85;10.50;;;;;;;17.27;80.62;98879.80;262942;1085;24048;-74
2021/06/27 03:47:39;;;;;;;15.20;12.55;;;;;;;17.38;78.88;98882.91;262948;1085;26044;-74
2021/06/27 03:52:42;;;;;;;14.07;12.03;;;;;;;17.46;78.11;98875.86;262819;1087;25755;-74
2021/06/27 03:57:47;;;;;;;14.65;13.05;;;;;;;17.62;78.25;98867.90;263116;1087;24173;-75
2021/06/27 04:03:00;;;;;;;13.95;11.55;;;;;;;18.08;78.12;98867.95;262843;1086;25880;-75
2021/06/27 04:08:17;;;;;;;12.85;10.40;;;;;;;18.36;77.09;98867.31;263077;1087;24043;-74
2021/06/27 04:13:30;;;;;;;11.37;10.17;;;;;;;18.41;76.50;98875.21;262830;1085;25851;-74
2021/06/27 04:18:36;;;;;;;10.70;9.70;;;;;;;18.38;77.36;98865.83;263098;1087;26002;-74
2021/06/27 04:23:41;;;;;;;11.40;10.15;;;;;;;18.41;77.14;98869.78;262873;1086;27233;-74
2021/06/27 04:28:44;;;;;;;13.25;11.95;;;;;;;18.19;76.17;98866.39;262853;1086;22735;-74
2021/06/27 04:33:47;;;;;;;14.25;11.70;;;;;;;17.99;77.04;98868.02;262809;1087;22950;-74
2021/06/27 04:38:50;;;;;;;13.00;11.30;;;;;;;17.95;77.16;98873.34;262888;1086;24282;-75
2021/06/27 04:43:53;;;;;;;13.45;11.15;;;;;;;17.83;77.13;98873.27;262853;1086;22802;-74
2021/06/27 04:48:57;;;;;;;15.35;12.55;;;;;;;17.82;77.45;98868.97;262819;1087;22748;-74
2021/06/27 04:54:01;;;;;;;13.20;11.85;;;;;;;17.91;78.13;98875.13;262842;1087;22873;-74
2021/06/27 04:59:04;;;;;;;12.10;10.90;;;;;;;18.06;77.84;98881.03;262940;1087;25889;-75
2021/06/27 05:04:07;;;;;;;13.17;11.43;;;;;;;18.13;77.75;98882.08;263019;1086;23030;-74
2021/06/27 05:09:10;;;;;;;13.40;11.95;;;;;;;18.29;77.96;98879.50;262924;1087;27101;-74
2021/06/27 05:14:13;;;;;;;16.10;14.05;;;;;;;18.54;78.17;98884.95;262768;1087;24336;-75
2021/06/27 05:19:17;;;;;;;13.65;12.30;;;;;;;18.83;78.15;98883.14;262933;1087;25863;-74
2021/06/27 05:24:22;;;;;;;17.50;12.00;;;;;;;19.08;77.76;98894.79;262895;1085;24157;-75
2021/06/27 05:29:25;;;;;;;14.10;11.50;;;;;;;19.33;77.66;98892.00;262978;1087;25321;-74
2021/06/27 05:34:35;;;;;;;13.07;11.87;;;;;;;19.59;76.99;98890.80;262904;1087;22949;-75
2021/06/27 05:39:38;;;;;;;14.60;13.10;;;;;;;19.68;76.70;98890.64;263025;1087;22770;-75
2021/06/27 05:44:41;;;;;;;15.27;12.93;;;;;;;19.80;76.02;98888.69;262822;1087;22783;-75
2021/06/27 05:49:44;;;;;;;15.77;14.13;;;;;;;20.07;76.13;98891.71;262914;1087;24177;-75
2021/06/27 05:54:48;;;;;;;14.43;13.03;;;;;;;20.20;75.50;98881.55;262828;1086;25781;-74
2021/06/27 06:00:04;;;;;;;14.37;12.57;;;;;;;20.36;75.38;98889.73;263022;1087;22910;-74
2021/06/27 06:05:23;;;;;;;14.67;13.17;;;;;;;20.51;74.68;98882.72;263254;1086;23818;-74
2021/06/27 06:10:26;;;;;;;14.87;13.37;;;;;;;20.64;74.66;98897.78;262882;1087;22815;-75
2021/06/27 06:15:31;;;;;;;16.80;13.03;;;;;;;20.70;74.48;98889.39;262814;1087;25960;-75
2021/06/27 06:20:34;;;;;;;15.53;13.37;;;;;;;20.78;74.17;98886.48;263018;1087;22957;-74
2021/06/27 06:25:39;;;;;;;14.50;13.00;;;;;;;20.89;74.03;98896.81;263170;1087;23968;-74
2021/06/27 06:30:42;;;;;;;14.30;12.67;;;;;;;20.99;73.25;98901.72;263078;1087;22884;-74
2021/06/27 06:35:46;;;;;;;13.77;12.33;;;;;;;21.13;73.23;98906.70;263267;1087;22905;-74
2021/06/27 06:40:49;;;;;;;12.48;10.93;;;;;;;21.25;72.68;98901.13;263174;1087;22845;-75
2021/06/27 06:45:52;;;;;;;12.60;11.40;;;;;;;21.34;72.10;98912.59;263099;1087;25967;-75
2021/06/27 06:51:06;;;;;;;13.98;12.45;;;;;;;21.55;72.11;98903.32;263125;1086;24410;-74
2021/06/27 06:56:10;;;;;;;10.73;9.73;;;;;;;21.67;70.86;98902.38;263186;1087;25934;-74
2021/06/27 07:01:15;;;;;;;12.55;11.15;;;;;;;21.65;70.36;98910.91;263134;1087;26031;-74
2021/06/27 07:06:22;;;;;;;11.60;10.40;;;;;;;21.66;70.24;98912.50;263375;1086;22837;-74
2021/06/27 07:11:25;;;;;;;10.63;9.53;;;;;;;21.79;69.15;98913.13;263240;1085;24157;-74
2021/06/27 07:16:30;;;;;;;10.18;9.18;;;;;;;21.85;69.33;98902.72;263228;1086;22787;-75
2021/06/27 07:21:46;;;;;;;11.73;10.63;;;;;;;22.10;68.76;98899.67;263182;1087;25867;-75
2021/06/27 07:27:06;;;;;;;11.23;10.15;;;;;;;22.38;68.87;98891.20;263176;1086;24333;-75
2021/06/27 07:32:09;;;;;;;10.90;9.90;;;;;;;22.49;67.85;98894.13;263141;1087;25970;-75
2021/06/27 07:37:12;;;;;;;10.70;9.78;;;;;;;22.51;67.18;98881.69;263140;1087;22797;-74
2021/06/27 07:42:17;;;;;;;10.65;9.65;;;;;;;22.52;66.16;98885.97;263167;1087;22776;-74
2021/06/27 07:47:20;;;;;;;10.08;9.18;;;;;;;22.61;66.58;98884.94;263257;1087;22772;-75
2021/06/27 07:52:24;;;;;;;10.10;9.20;;;;;;;22.81;66.24;98897.34;263155;1087;26703;-74
2021/06/27 07:57:28;;;;;;;8.60;7.80;;;;;;;22.94;64.93;98894.41;263255;1086;25883;-75
2021/06/27 08:02:33;;;;;;;6.83;6.23;;;;;;;22.89;63.86;98898.25;263218;1087;22802;-74
2021/06/27 08:07:36;;;;;;;6.48;5.88;;;;;;;22.98;63.39;98900.70;263189;1087;25961;-74
2021/06/27 08:12:41;;;;;;;8.63;7.83;;;;;;;23.18;63.52;98891.27;263280;1087;25784;-74
2021/06/27 08:17:55;;;;;;;10.28;9.30;;;;;;;23.46;62.91;98891.98;263158;1087;24451;-74
2021/06/27 08:23:16;;;;;;;7.95;7.25;;;;;;;23.65;61.43;98885.58;263088;1087;22754;-74
2021/06/27 08:28:19;;;;;;;9.45;8.55;;;;;;;23.80;62.36;98894.70;263202;1086;22764;-74
2021/06/27 08:33:24;;;;;;;9.68;8.78;;;;;;;24.13;62.12;98887.66;263145;1086;22835;-75
2021/06/27 08:38:27;;;;;;;8.80;8.00;;;;;;;24.19;60.21;98884.20;263266;1087;24282;-74
2021/06/27 08:43:33;;;;;;;6.85;6.25;;;;;;;23.90;58.57;98888.61;263133;1087;23206;-74
2021/06/27 08:48:39;;;;;;;8.55;7.75;;;;;;;23.86;59.79;98883.06;263060;1087;22754;-74
2021/06/27 08:53:43;;;;;;;6.68;6.15;;;;;;;24.04;59.62;98882.50;263292;1087;22756;-74
2021/06/27 08:58:48;;;;;;;8.93;8.18;;;;;;;24.19;58.71;98886.94;263144;1087;26047;-72
2021/06/27 09:04:04;;;;;;;8.43;7.73;;;;;;;24.48;59.38;98889.90;263347;1087;25900;-74
2021/06/27 09:09:21;;;;;;;8.05;7.35;;;;;;;24.70;57.24;98890.88;263301;1087;22801;-74
2021/06/27 09:14:30;;;;;;;7.83;7.10;;;;;;;25.04;57.10;98889.92;263360;1087;24056;-73
2021/06/27 09:19:56;;;;;;;9.15;8.35;;;;;;;25.30;56.53;98888.88;263269;1087;24455;-75
2021/06/27 09:25:22;;;;;;;8.73;8.03;;;;;;;25.21;55.68;98885.69;263614;1086;24447;-73
2021/06/27 09:30:27;;;;;;;8.08;7.38;;;;;;;25.42;55.71;98876.80;263248;1086;22802;-74
2021/06/27 09:36:02;;;;;;;6.95;6.38;;;;;;;25.19;53.92;98891.56;263150;1087;22789;-74
2021/06/27 09:41:06;;;;;;;6.58;6.08;;;;;;;24.77;54.21;98893.66;263161;1087;22775;-74
2021/06/27 09:46:13;;;;;;;6.60;6.03;;;;;;;25.01;54.25;98885.98;263520;1086;25861;-75
2021/06/27 09:51:18;;;;;;;7.03;6.43;;;;;;;25.27;54.20;98884.17;263312;1086;24195;-74
2021/06/27 09:56:34;;;;;;;7.28;6.68;;;;;;;25.48;53.30;98880.77;263276;1086;22817;-75
2021/06/27 10:01:58;;;;;;;6.30;5.65;;;;;;;25.62;52.63;98871.80;263182;1087;22757;-74
2021/06/27 10:07:05;;;;;;;7.65;7.05;;;;;;;25.86;52.88;98869.50;263160;1087;24314;-75
2021/06/27 10:12:11;;;;;;;;;;;;;;;25.92;51.19;98862.45;263090;1087;24458;-74
2021/06/27 10:17:18;;;;;;;7.35;6.75;;;;;;;26.14;51.48;98868.78;263134;1087;24550;-74
2021/06/27 10:22:25;;;;;;;6.35;5.75;;;;;;;26.23;50.70;98851.91;263270;1086;26298;-75
2021/06/27 10:27:29;;;;;;;5.50;5.10;;;;;;;26.20;50.17;98849.95;263148;1087;22740;-75
2021/06/27 10:32:39;;;;;;;6.33;5.78;;;;;;;26.25;48.48;98855.06;263224;1087;24052;-74
2021/06/27 10:37:44;;;;;;;5.35;4.95;;;;;;;26.23;48.57;98849.17;263390;1087;22863;-74
2021/06/27 10:42:50;;;;;;;7.73;5.08;;;;;;;26.19;47.36;98831.91;263170;1086;22811;-74
2021/06/27 10:47:53;;;;;;;4.83;4.48;;;;;;;26.21;48.23;98837.80;263134;1085;25963;-74
2021/06/27 10:52:59;;;;;;;5.30;4.90;;;;;;;26.43;47.88;98838.59;263225;1087;22778;-74
2021/06/27 10:58:15;;;;;;;5.65;5.25;;;;;;;26.64;47.48;98826.78;263102;1086;24358;-74
2021/06/27 11:03:31;;;;;;;5.60;5.15;;;;;;;26.88;47.75;98816.92;263091;1087;26248;-75
2021/06/27 11:08:50;;;;;;;5.15;4.70;;;;;;;27.01;46.92;98814.52;263092;1087;22886;-74
2021/06/27 11:14:11;;;;;;;5.13;4.73;;;;;;;27.03;46.42;98817.67;263450;1086;23035;-74
2021/06/27 11:19:26;;;;;;;4.78;4.38;;;;;;;27.25;46.17;98812.06;263295;1087;22772;-74
2021/06/27 11:24:32;;;;;;;3.75;3.45;;;;;;;27.26;45.16;98808.14;263308;1087;23474;-74
2021/06/27 11:29:35;;;;;;;3.20;2.98;;;;;;;27.29;43.86;98810.86;263135;1087;22847;-74
2021/06/27 11:34:58;;;;;;;3.28;3.08;;;;;;;27.47;43.43;98804.52;263226;1087;22908;-74
2021/06/27 11:40:04;;;;;;;4.13;3.83;;;;;;;27.30;42.80;98809.68;263300;1087;24303;-77
2021/06/27 11:45:07;;;;;;;4.20;3.90;;;;;;;27.45;44.15;98798.63;263106;1086;24183;-73
2021/06/27 11:50:27;;;;;;;4.30;4.00;;;;;;;27.58;41.85;98796.21;263148;1087;22743;-73
2021/06/27 11:55:48;;;;;;;6.18;5.68;;;;;;;27.55;43.02;98802.50;263450;1086;24332;-75
2021/06/27 12:00:52;;;;;;;4.30;4.00;;;;;;;27.65;42.23;98798.91;263068;1085;26238;-74
2021/06/27 12:06:02;;;;;;;4.53;4.13;;;;;;;27.86;43.23;98797.98;262952;1085;22835;-75
2021/06/27 12:11:07;;;;;;;4.48;4.18;;;;;;;28.07;43.05;98788.02;263243;1087;22790;-74
2021/06/27 12:16:25;;;;;;;4.20;3.93;;;;;;;28.56;43.12;98779.69;263099;1086;23057;-74
2021/06/27 12:21:48;;;;;;;6.13;5.73;;;;;;;28.73;42.42;98789.75;263336;1086;25972;-74
2021/06/27 12:27:18;;;;;;;5.03;4.45;;;;;;;28.47;42.28;98780.95;263165;1087;25983;-74
2021/06/27 12:32:33;;;;;;;4.68;4.38;;;;;;;28.35;42.49;98781.46;262992;1085;25842;-74
2021/06/27 12:37:36;;;;;;;4.63;4.33;;;;;;;28.23;42.73;98784.72;263235;1086;24336;-74
2021/06/27 12:42:40;;;;;;;4.98;4.58;;;;;;;27.94;42.52;98795.94;263233;1085;22760;-74
2021/06/27 12:47:43;;;;;;;5.00;4.60;;;;;;;27.69;42.76;98791.42;263094;1085;25780;-73
2021/06/27 12:52:48;;;;;;;5.33;4.93;;;;;;;27.67;43.37;98788.27;263349;1087;25830;-74
2021/06/27 12:57:56;;;;;;;5.05;4.65;;;;;;;27.49;43.43;98789.19;263243;1086;24147;-74
2021/06/27 13:03:18;;;;;;;6.10;5.60;;;;;;;27.19;44.37;98786.19;263003;1085;24039;-74
2021/06/27 13:08:21;;;;;;;5.13;4.73;;;;;;;27.00;45.37;98790.19;263054;1086;22924;-73
2021/06/27 13:13:30;;;;;;;4.98;4.68;;;;;;;26.93;45.75;98785.49;263063;1085;22782;-73
2021/06/27 13:18:35;;;;;;;6.40;5.70;;;;;;;27.18;46.06;98779.11;263250;1085;22858;-73
2021/06/27 13:23:39;;;;;;;5.38;4.98;;;;;;;27.30;44.92;98773.16;263090;1087;22834;-73
2021/06/27 13:28:49;;;;;;;5.03;4.68;;;;;;;27.31;43.97;98774.73;263099;1086;25871;-75
2021/06/27 13:33:55;;;;;;;4.50;4.13;;;;;;;27.30;44.05;98782.19;263036;1087;22772;-74
2021/06/27 13:39:10;;;;;;;4.53;4.18;;;;;;;27.42;44.01;98783.73;263233;1085;22892;-74
2021/06/27 13:44:15;;;;;;;5.08;4.68;;;;;;;27.46;42.83;98790.00;263069;1087;22764;-74
2021/06/27 13:49:18;;;;;;;4.55;4.25;;;;;;;27.52;43.34;98781.30;263044;1087;27147;-74
2021/06/27 13:54:21;;;;;;;3.95;3.65;;;;;;;27.59;42.84;98781.25;263181;1087;25871;-75
2021/06/27 13:59:24;;;;;;;4.60;4.30;;;;;;;27.52;42.18;98787.61;263103;1087;23337;-73
2021/06/27 14:04:28;;;;;;;4.15;3.85;;;;;;;27.54;42.56;98787.97;263025;1087;24449;-73
2021/06/27 14:09:31;;;;;;;4.70;4.15;;;;;;;27.65;42.16;98783.17;262963;1086;25854;-74
2021/06/27 14:14:48;;;;;;;4.57;4.27;;;;;;;27.77;41.64;98773.67;263085;1087;22805;-73
2021/06/27 14:19:53;;;;;;;5.18;4.70;;;;;;;28.00;41.92;98784.13;263117;1087;25858;-74
2021/06/27 14:24:58;;;;;;;4.53;4.23;;;;;;;28.02;41.55;98780.95;263233;1087;23372;-73
2021/06/27 14:30:01;;;;;;;5.60;5.10;;;;;;;27.92;41.91;98765.30;262995;1087;23301;-73
2021/06/27 14:35:10;;;;;;;4.75;4.40;;;;;;;27.68;41.89;98778.84;263207;1087;26002;-74
2021/06/27 14:40:13;;;;;;;4.98;4.58;;;;;;;27.48;42.13;98773.09;263133;1087;22785;-74
2021/06/27 14:45:17;;;;;;;5.48;5.08;;;;;;;27.24;42.44;98769.25;263392;1086;22902;-74
2021/06/27 14:50:21;;;;;;;6.20;5.70;;;;;;;26.94;43.41;98774.09;263071;1086;23298;-73
2021/06/27 14:55:24;;;;;;;6.10;5.70;;;;;;;26.87;44.14;98768.64;263293;1087;22834;-73
2021/06/27 15:00:30;;;;;;;5.45;4.95;;;;;;;26.87;44.82;98760.39;263151;1087;24321;-74
2021/06/27 15:05:39;;;;;;;7.90;5.93;;;;;;;26.86;45.20;98758.81;263295;1085;22854;-73
2021/06/27 15:10:43;;;;;;;6.00;5.50;;;;;;;26.95;45.17;98752.91;263335;1087;25921;-73
2021/06/27 15:15:47;;;;;;;5.60;5.20;;;;;;;27.42;44.44;98753.48;263306;1085;22910;-74
2021/06/27 15:20:51;;;;;;;5.70;5.30;;;;;;;27.70;43.46;98748.16;263172;1087;24157;-74
2021/06/27 15:25:54;;;;;;;5.53;5.13;;;;;;;27.80;43.17;98750.84;263452;1085;23477;-74
2021/06/27 15:30:58;;;;;;;5.50;5.10;;;;;;;27.78;42.59;98744.95;263091;1086;23337;-74
2021/06/27 15:36:03;;;;;;;5.23;4.73;;;;;;;27.73;41.73;98737.14;263276;1087;22854;-74
2021/06/27 15:41:07;;;;;;;5.98;5.40;;;;;;;27.66;41.78;98735.22;263336;1087;22753;-73
2021/06/27 15:46:12;;;;;;;5.65;5.25;;;;;;;27.55;41.67;98736.47;263137;1087;22779;-73
2021/06/27 15:51:15;;;;;;;5.98;5.58;;;;;;;27.49;42.21;98716.87;263154;1087;22982;-73
2021/06/27 15:56:18;;;;;;;5.63;5.13;;;;;;;27.51;42.04;98720.02;263176;1084;22780;-74
2021/06/27 16:01:22;;;;;;;6.30;5.80;;;;;;;27.56;42.67;98716.84;263219;1086;22906;-73
2021/06/27 16:06:25;;;;;;;5.70;5.20;;;;;;;27.42;42.36;98720.47;263349;1087;22770;-74
2021/06/27 16:11:28;;;;;;;5.73;5.33;;;;;;;27.43;42.68;98716.52;263288;1085;22792;-73
2021/06/27 16:16:39;;;;;;;5.78;5.33;;;;;;;27.32;42.53;98718.53;263204;1085;22857;-73
2021/06/27 16:21:42;;;;;;;5.75;5.23;;;;;;;27.27;42.77;98725.24;263149;1087;24473;-72
2021/06/27 16:26:53;;;;;;;5.83;5.35;;;;;;;27.25;42.24;98732.33;263194;1086;25852;-73
2021/06/27 16:31:58;;;;;;;4.95;4.65;;;;;;;27.26;41.65;98728.41;263166;1087;22809;-73
2021/06/27 16:37:06;;;;;;;5.20;4.78;;;;;;;27.10;41.88;98726.12;263234;1087;22804;-74
2021/06/27 16:42:10;;;;;;;5.60;5.20;;;;;;;27.02;42.63;98722.64;263186;1085;22783;-74
2021/06/27 16:47:13;;;;;;;5.80;5.40;;;;;;;26.94;43.03;98721.11;263109;1085;25899;-73
2021/06/27 16:52:17;;;;;;;5.60;5.10;;;;;;;26.91;42.99;98724.66;263314;1086;23356;-73
2021/06/27 16:57:22;;;;;;;6.00;5.50;;;;;;;26.80;42.77;98727.45;263180;1087;26255;-74
2021/06/27 17:02:25;;;;;;;5.93;5.43;;;;;;;26.68;43.24;98734.16;263104;1087;22772;-72
2021/06/27 17:07:33;;;;;;;5.90;5.50;;;;;;;26.80;43.36;98728.22;263411;1087;22866;-73
2021/06/27 17:12:38;;;;;;;5.63;5.13;;;;;;;27.87;43.48;98725.23;263138;1087;25729;-73
2021/06/27 17:17:43;;;;;;;5.60;5.20;;;;;;;29.13;42.41;98731.34;263024;1086;22677;-73
2021/06/27 17:22:47;;;;;;;6.03;5.53;;;;;;;30.32;41.29;98722.00;263237;1087;24299;-73
2021/06/27 17:27:52;;;;;;;5.68;5.28;;;;;;;31.18;40.85;98719.48;263379;1087;22902;-73
2021/06/27 17:32:55;;;;;;;5.80;5.40;;;;;;;31.80;39.08;98712.52;263139;1087;22769;-73
2021/06/27 17:38:01;;;;;;;5.53;5.13;;;;;;;31.92;38.37;98702.75;263081;1087;25862;-73
2021/06/27 17:43:07;;;;;;;5.30;4.80;;;;;;;30.99;37.99;98706.45;263177;1087;27096;-73
2021/06/27 17:48:19;;;;;;;5.70;5.30;;;;;;;29.79;38.73;98696.88;263221;1087;22742;-74
2021/06/27 17:53:22;;;;;;;5.88;5.33;;;;;;;28.78;39.89;98695.59;263173;1087;26034;-73
2021/06/27 17:58:26;;;;;;;5.70;5.28;;;;;;;27.93;40.65;98706.31;263249;1085;24308;-73
2021/06/27 18:03:30;;;;;;;6.03;5.53;;;;;;;27.17;41.26;98706.06;263013;1087;25868;-73
2021/06/27 18:08:33;;;;;;;5.73;5.23;;;;;;;26.52;41.90;98706.34;262917;1087;22757;-74
2021/06/27 18:13:36;;;;;;;6.18;5.68;;;;;;;25.96;43.04;98702.10;263031;1087;22711;-73
2021/06/27 18:18:53;;;;;;;5.85;5.33;;;;;;;25.55;44.04;98712.72;263096;1085;25867;-74
2021/06/27 18:23:56;;;;;;;5.70;5.30;;;;;;;25.10;44.22;98716.52;263201;1085;22860;-74
2021/06/27 18:29:00;;;;;;;5.70;5.18;;;;;;;24.71;44.90;98714.44;263093;1087;24282;-73
2021/06/27 18:34:03;;;;;;;6.00;5.50;;;;;;;24.39;45.41;98717.77;263058;1087;26397;-74
2021/06/27 18:39:07;;;;;;;5.88;5.38;;;;;;;24.08;46.33;98708.98;263166;1087;22847;-73
2021/06/27 18:44:16;;;;;;;5.97;5.57;;;;;;;23.76;47.23;98711.45;263015;1085;22788;-74
2021/06/27 18:49:22;;;;;;;8.08;7.30;;;;;;;23.44;48.18;98722.12;263208;1085;22850;-73
2021/06/27 18:54:25;;;;;;;5.90;5.40;;;;;;;23.16;49.25;98726.13;263205;1086;22837;-73
2021/06/27 18:59:37;;;;;;;6.20;5.60;;;;;;;22.90;50.25;98739.47;263245;1085;25791;-73
2021/06/27 19:05:03;;;;;;;5.97;5.40;;;;;;;22.59;51.08;98743.35;263274;1087;24186;-74
2021/06/27 19:10:10;;;;;;;6.05;5.45;;;;;;;22.31;51.66;98746.45;263365;1087;22865;-74
2021/06/27 19:15:15;;;;;;;6.18;5.68;;;;;;;22.05;52.36;98748.80;263316;1085;22753;-73
2021/06/27 19:20:20;;;;;;;6.23;5.70;;;;;;;21.81;53.64;98749.17;263163;1087;22822;-73
2021/06/27 19:25:24;;;;;;;5.53;5.03;;;;;;;21.65;54.25;98762.94;263113;1086;22757;-74
2021/06/27 19:30:27;;;;;;;6.53;5.40;;;;;;;21.52;54.20;98754.93;263095;1087;25755;-74
2021/06/27 19:35:31;;;;;;;7.70;5.93;;;;;;;21.40;54.69;98757.01;262985;1087;22746;-73
2021/06/27 19:40:34;;;;;;;7.07;6.37;;;;;;;21.25;55.49;98761.39;263341;1086;24493;-73
2021/06/27 19:45:40;;;;;;;9.00;6.35;;;;;;;21.07;55.64;98761.05;263048;1087;22830;-74
2021/06/27 19:50:43;;;;;;;7.03;6.10;;;;;;;20.90;56.07;98770.43;263220;1087;22819;-73
2021/06/27 19:55:47;;;;;;;6.40;5.80;;;;;;;20.75;56.83;98777.50;263365;1087;25858;-73
2021/06/27 20:00:51;;;;;;;6.10;5.50;;;;;;;20.60;57.73;98782.61;263225;1085;25820;-72
2021/06/27 20:06:07;;;;;;;6.58;5.98;;;;;;;20.51;57.97;98784.76;263230;1087;23744;-74
2021/06/27 20:11:18;;;;;;;8.63;6.08;;;;;;;20.41;58.80;98779.84;263089;1087;26507;-73
2021/06/27 20:16:23;;;;;;;8.50;7.70;;;;;;;20.27;59.62;98786.55;263196;1087;24470;-73
2021/06/27 20:21:28;;;;;;;7.97;7.17;;;;;;;20.19;60.73;98782.08;263292;1087;25980;-73
2021/06/27 20:26:32;;;;;;;7.15;6.45;;;;;;;20.13;60.82;98778.03;263423;1087;26021;-74
2021/06/27 20:31:35;;;;;;;8.15;7.40;;;;;;;20.07;61.50;98780.23;263229;1087;27054;-73
2021/06/27 20:36:40;;;;;;;8.87;7.97;;;;;;;19.99;62.25;98784.72;263268;1085;22806;-73
2021/06/27 20:41:46;;;;;;;9.20;8.30;;;;;;;19.93;62.50;98788.05;263067;1087;23757;-73
2021/06/27 20:46:49;;;;;;;8.25;7.45;;;;;;;19.86;62.70;98787.88;263393;1087;22953;-73
2021/06/27 20:51:52;;;;;;;9.07;8.27;;;;;;;19.83;63.76;98789.36;263146;1087;25995;-74
2021/06/27 20:56:56;;;;;;;10.00;9.10;;;;;;;19.71;63.98;98786.68;263092;1087;25899;-73
2021/06/27 21:02:00;;;;;;;10.05;9.05;;;;;;;19.60;64.92;98795.35;263193;1087;22804;-73
2021/06/27 21:07:04;;;;;;;13.00;10.90;;;;;;;19.51;65.61;98793.94;263220;1087;22792;-73
2021/06/27 21:12:08;;;;;;;11.75;10.25;;;;;;;19.35;66.52;98802.83;263212;1086;25967;-73
2021/06/27 21:17:12;;;;;;;11.15;10.15;;;;;;;19.25;67.12;98795.16;263171;1087;24026;-73
2021/06/27 21:22:16;;;;;;;9.60;8.50;;;;;;;19.12;67.44;98794.42;263100;1087;22754;-73
2021/06/27 21:27:19;;;;;;;9.10;8.20;;;;;;;19.04;67.63;98789.92;263101;1087;26091;-73
2021/06/27 21:32:22;;;;;;;10.85;7.60;;;;;;;19.04;68.00;98790.73;263193;1087;26304;-73
2021/06/27 21:37:26;;;;;;;11.35;8.70;;;;;;;19.01;68.34;98788.68;263151;1087;24317;-73
2021/06/27 21:42:29;;;;;;;12.05;9.25;;;;;;;19.00;68.70;98795.27;263167;1085;22845;-75
2021/06/27 21:47:43;;;;;;;10.35;9.05;;;;;;;19.02;68.96;98800.34;263127;1087;24391;-74
2021/06/27 21:52:50;;;;;;;10.05;8.65;;;;;;;19.01;68.60;98801.47;263285;1087;25750;-74
2021/06/27 21:57:53;;;;;;;9.15;8.03;;;;;;;18.92;69.15;98796.97;263026;1087;22780;-74
2021/06/27 22:02:57;;;;;;;8.45;7.55;;;;;;;18.89;69.53;98805.80;263060;1087;22894;-73
2021/06/27 22:08:00;;;;;;;9.70;8.70;;;;;;;18.87;70.07;98804.53;263223;1086;22768;-73
2021/06/27 22:13:04;;;;;;;8.75;7.90;;;;;;;18.84;70.07;98808.72;263174;1087;24307;-75
2021/06/27 22:18:08;;;;;;;9.45;8.40;;;;;;;18.83;70.22;98811.77;263089;1087;22845;-74
2021/06/27 22:23:12;;;;;;;9.60;8.70;;;;;;;18.81;70.45;98818.33;263228;1087;26264;-73
2021/06/27 22:28:16;;;;;;;9.60;8.70;;;;;;;18.78;70.69;98820.95;263265;1087;25755;-73
2021/06/27 22:33:19;;;;;;;11.95;9.10;;;;;;;18.57;69.91;98810.24;263484;1085;22988;-73
2021/06/27 22:38:23;;;;;;;12.25;10.15;;;;;;;18.42;70.01;98809.00;263171;1087;24149;-73
2021/06/27 22:43:28;;;;;;;12.53;11.23;;;;;;;18.35;70.38;98806.07;263202;1087;22840;-73
2021/06/27 22:48:31;;;;;;;13.40;11.40;;;;;;;18.28;70.67;98815.54;263280;1086;22834;-73
2021/06/27 22:53:47;;;;;;;12.10;10.40;;;;;;;18.19;70.72;98817.59;262921;1086;22755;-73
2021/06/27 22:58:55;;;;;;;11.97;10.77;;;;;;;18.09;70.80;98813.40;262803;1086;22934;-72
2021/06/27 23:03:58;;;;;;;12.05;10.55;;;;;;;18.05;71.21;98819.84;262845;1085;25983;-73
2021/06/27 23:09:02;;;;;;;13.80;11.20;;;;;;;18.01;71.46;98818.93;262889;1086;24282;-73
2021/06/27 23:14:06;;;;;;;16.25;11.55;;;;;;;17.96;71.71;98817.20;262877;1087;24285;-73
2021/06/27 23:19:11;;;;;;;14.45;11.35;;;;;;;17.92;72.09;98814.40;262865;1087;25896;-73
2021/06/27 23:24:15;;;;;;;12.50;11.20;;;;;;;17.89;72.42;98823.17;262783;1087;25873;-73
2021/06/27 23:29:18;;;;;;;11.60;10.40;;;;;;;17.86;72.43;98823.05;262955;1086;24299;-73
2021/06/27 23:34:21;;;;;;;14.55;12.55;;;;;;;17.64;72.22;98806.04;262926;1087;24557;-73